Nîmes-Arles-Camargue Airport

Airport
ICAO code: 
LFTW
IATA Code: 
FNI
Summary
ICAO Region: 
EUR
Territory: 
Location: 
, Languedoc-Roussillon
Serving: 
Nimes
Elevation: 
309 ft
Coordinates: 
Aerial View: 
43° 45' 26.798" N, 4° 24' 58.849" E
Metar
Observation
LFTW 302130Z AUTO VRB02KT CAVOK 02/M02 Q1022
Station
Nimes / Garons
Date/Time
2021-11-30 21:30:00
Wind speed
02 kts
Lowest cloud amount
clouds and visibility OK
Temperature
2°C
Dew point
-2°C
Humidity
74%
QNH
1022 hPa
Weather condition
n/a

Runways

Designator Length Width Surface Rops
18/36 2440 45 CON Yes/Yes
Airport map: 
Aerial View: 

SKYbrary Partners:

Safety knowledge contributed by: